sensor_id;sensor_type;location;lat;lon;timestamp;P1;durP1;ratioP1;P2;durP2;ratioP2
41861;SDS011;27537;57.134;-2.136;2023-08-01T00:01:37;8.75;;;1.95;;
41861;SDS011;27537;57.134;-2.136;2023-08-01T00:04:04;8.15;;;1.98;;
41861;SDS011;27537;57.134;-2.136;2023-08-01T00:06:31;5.43;;;1.92;;
41861;SDS011;27537;57.134;-2.136;2023-08-01T00:08:57;8.30;;;1.70;;
41861;SDS011;27537;57.134;-2.136;2023-08-01T00:11:24;8.07;;;2.22;;
41861;SDS011;27537;57.134;-2.136;2023-08-01T00:13:51;17.67;;;2.45;;
41861;SDS011;27537;57.134;-2.136;2023-08-01T00:16:17;6.38;;;1.65;;
41861;SDS011;27537;57.134;-2.136;2023-08-01T00:18:44;7.55;;;2.00;;
41861;SDS011;27537;57.134;-2.136;2023-08-01T00:21:11;7.18;;;2.13;;
41861;SDS011;27537;57.134;-2.136;2023-08-01T00:23:38;8.63;;;1.98;;
41861;SDS011;27537;57.134;-2.136;2023-08-01T00:26:04;8.35;;;2.10;;
41861;SDS011;27537;57.134;-2.136;2023-08-01T00:28:31;6.72;;;1.85;;
41861;SDS011;27537;57.134;-2.136;2023-08-01T00:31:05;6.78;;;1.85;;
41861;SDS011;27537;57.134;-2.136;2023-08-01T00:33:33;9.38;;;2.65;;
41861;SDS011;27537;57.134;-2.136;2023-08-01T00:36:00;10.82;;;2.42;;
41861;SDS011;27537;57.134;-2.136;2023-08-01T00:38:27;14.68;;;2.65;;
41861;SDS011;27537;57.134;-2.136;2023-08-01T00:40:53;10.38;;;2.65;;
41861;SDS011;27537;57.134;-2.136;2023-08-01T00:43:20;13.20;;;2.85;;
41861;SDS011;27537;57.134;-2.136;2023-08-01T00:45:47;7.80;;;2.10;;
41861;SDS011;27537;57.134;-2.136;2023-08-01T00:48:14;10.85;;;2.58;;
41861;SDS011;27537;57.134;-2.136;2023-08-01T00:50:41;10.80;;;2.83;;
41861;SDS011;27537;57.134;-2.136;2023-08-01T00:53:08;11.32;;;2.55;;
41861;SDS011;27537;57.134;-2.136;2023-08-01T00:55:35;11.50;;;2.83;;
41861;SDS011;27537;57.134;-2.136;2023-08-01T00:58:02;12.20;;;2.90;;
41861;SDS011;27537;57.134;-2.136;2023-08-01T01:00:29;12.82;;;2.53;;
41861;SDS011;27537;57.134;-2.136;2023-08-01T01:02:56;13.77;;;3.40;;
41861;SDS011;27537;57.134;-2.136;2023-08-01T01:05:23;15.07;;;2.88;;
41861;SDS011;27537;57.134;-2.136;2023-08-01T01:07:51;13.30;;;2.80;;
41861;SDS011;27537;57.134;-2.136;2023-08-01T01:10:18;11.07;;;3.00;;
41861;SDS011;27537;57.134;-2.136;2023-08-01T01:12:45;16.35;;;3.05;;
41861;SDS011;27537;57.134;-2.136;2023-08-01T01:15:14;13.38;;;2.70;;
41861;SDS011;27537;57.134;-2.136;2023-08-01T01:17:40;7.82;;;2.70;;
41861;SDS011;27537;57.134;-2.136;2023-08-01T01:20:07;14.98;;;3.00;;
41861;SDS011;27537;57.134;-2.136;2023-08-01T01:22:34;10.27;;;2.75;;
41861;SDS011;27537;57.134;-2.136;2023-08-01T01:25:02;11.38;;;2.60;;
41861;SDS011;27537;57.134;-2.136;2023-08-01T01:27:30;11.23;;;3.20;;
41861;SDS011;27537;57.134;-2.136;2023-08-01T01:29:57;13.93;;;3.25;;
41861;SDS011;27537;57.134;-2.136;2023-08-01T01:32:25;10.88;;;2.33;;
41861;SDS011;27537;57.134;-2.136;2023-08-01T01:34:53;13.45;;;2.90;;
41861;SDS011;27537;57.134;-2.136;2023-08-01T01:37:20;9.88;;;2.10;;
41861;SDS011;27537;57.134;-2.136;2023-08-01T01:39:47;9.40;;;2.40;;
41861;SDS011;27537;57.134;-2.136;2023-08-01T01:42:13;8.90;;;2.25;;
41861;SDS011;27537;57.134;-2.136;2023-08-01T01:44:40;14.52;;;2.58;;
41861;SDS011;27537;57.134;-2.136;2023-08-01T01:47:07;11.15;;;2.55;;
41861;SDS011;27537;57.134;-2.136;2023-08-01T01:49:33;12.70;;;2.10;;
41861;SDS011;27537;57.134;-2.136;2023-08-01T01:52:00;6.90;;;2.40;;
41861;SDS011;27537;57.134;-2.136;2023-08-01T01:54:27;10.88;;;2.42;;
41861;SDS011;27537;57.134;-2.136;2023-08-01T01:56:53;11.82;;;2.05;;
41861;SDS011;27537;57.134;-2.136;2023-08-01T01:59:20;10.80;;;2.38;;
41861;SDS011;27537;57.134;-2.136;2023-08-01T02:01:47;17.08;;;3.08;;
41861;SDS011;27537;57.134;-2.136;2023-08-01T02:04:13;10.13;;;2.55;;
41861;SDS011;27537;57.134;-2.136;2023-08-01T02:06:40;10.82;;;2.55;;
41861;SDS011;27537;57.134;-2.136;2023-08-01T02:09:07;12.18;;;2.50;;
41861;SDS011;27537;57.134;-2.136;2023-08-01T02:11:34;11.82;;;2.03;;
41861;SDS011;27537;57.134;-2.136;2023-08-01T02:14:01;13.65;;;2.45;;
41861;SDS011;27537;57.134;-2.136;2023-08-01T02:16:29;12.68;;;2.47;;
41861;SDS011;27537;57.134;-2.136;2023-08-01T02:18:56;9.00;;;2.15;;
41861;SDS011;27537;57.134;-2.136;2023-08-01T02:21:23;11.05;;;2.67;;
41861;SDS011;27537;57.134;-2.136;2023-08-01T02:23:49;9.30;;;2.20;;
41861;SDS011;27537;57.134;-2.136;2023-08-01T02:26:16;13.48;;;2.58;;
41861;SDS011;27537;57.134;-2.136;2023-08-01T02:28:43;10.40;;;2.38;;
41861;SDS011;27537;57.134;-2.136;2023-08-01T02:31:09;7.20;;;1.77;;
41861;SDS011;27537;57.134;-2.136;2023-08-01T02:33:36;11.10;;;2.63;;
41861;SDS011;27537;57.134;-2.136;2023-08-01T02:36:03;14.15;;;2.63;;
41861;SDS011;27537;57.134;-2.136;2023-08-01T02:38:30;7.80;;;1.98;;
41861;SDS011;27537;57.134;-2.136;2023-08-01T02:40:56;13.13;;;2.80;;
41861;SDS011;27537;57.134;-2.136;2023-08-01T02:43:23;12.20;;;2.67;;
41861;SDS011;27537;57.134;-2.136;2023-08-01T02:45:50;12.40;;;2.30;;
41861;SDS011;27537;57.134;-2.136;2023-08-01T02:48:16;14.63;;;3.15;;
41861;SDS011;27537;57.134;-2.136;2023-08-01T02:50:43;14.68;;;2.20;;
41861;SDS011;27537;57.134;-2.136;2023-08-01T02:53:10;16.48;;;3.28;;
41861;SDS011;27537;57.134;-2.136;2023-08-01T02:55:36;11.88;;;2.63;;
41861;SDS011;27537;57.134;-2.136;2023-08-01T02:58:03;16.15;;;3.15;;
41861;SDS011;27537;57.134;-2.136;2023-08-01T03:00:30;12.27;;;2.60;;
41861;SDS011;27537;57.134;-2.136;2023-08-01T03:02:58;11.25;;;2.25;;
41861;SDS011;27537;57.134;-2.136;2023-08-01T03:05:25;14.18;;;3.00;;
41861;SDS011;27537;57.134;-2.136;2023-08-01T03:07:51;14.48;;;2.65;;
41861;SDS011;27537;57.134;-2.136;2023-08-01T03:10:18;7.15;;;2.08;;
41861;SDS011;27537;57.134;-2.136;2023-08-01T03:13:01;10.50;;;2.60;;
41861;SDS011;27537;57.134;-2.136;2023-08-01T03:15:27;13.70;;;2.58;;
41861;SDS011;27537;57.134;-2.136;2023-08-01T03:17:54;13.95;;;2.40;;
41861;SDS011;27537;57.134;-2.136;2023-08-01T03:20:21;12.70;;;2.72;;
41861;SDS011;27537;57.134;-2.136;2023-08-01T03:22:49;10.32;;;2.40;;
41861;SDS011;27537;57.134;-2.136;2023-08-01T03:25:15;10.52;;;2.60;;
41861;SDS011;27537;57.134;-2.136;2023-08-01T03:27:42;15.32;;;2.92;;
41861;SDS011;27537;57.134;-2.136;2023-08-01T03:30:09;14.50;;;2.83;;
41861;SDS011;27537;57.134;-2.136;2023-08-01T03:32:36;13.45;;;3.13;;
41861;SDS011;27537;57.134;-2.136;2023-08-01T03:35:06;10.27;;;2.50;;
41861;SDS011;27537;57.134;-2.136;2023-08-01T03:37:33;14.82;;;3.05;;
41861;SDS011;27537;57.134;-2.136;2023-08-01T03:40:00;10.18;;;2.70;;
41861;SDS011;27537;57.134;-2.136;2023-08-01T03:42:26;11.18;;;2.03;;
41861;SDS011;27537;57.134;-2.136;2023-08-01T03:44:53;11.85;;;2.53;;
41861;SDS011;27537;57.134;-2.136;2023-08-01T03:47:20;15.27;;;3.00;;
41861;SDS011;27537;57.134;-2.136;2023-08-01T03:49:46;14.70;;;2.65;;
41861;SDS011;27537;57.134;-2.136;2023-08-01T03:52:14;14.65;;;2.70;;
41861;SDS011;27537;57.134;-2.136;2023-08-01T03:54:40;12.75;;;2.85;;
41861;SDS011;27537;57.134;-2.136;2023-08-01T03:57:07;20.75;;;3.33;;
41861;SDS011;27537;57.134;-2.136;2023-08-01T03:59:33;9.48;;;2.53;;
41861;SDS011;27537;57.134;-2.136;2023-08-01T04:02:00;14.45;;;3.88;;
41861;SDS011;27537;57.134;-2.136;2023-08-01T04:04:27;13.68;;;2.70;;
41861;SDS011;27537;57.134;-2.136;2023-08-01T04:06:54;11.20;;;2.72;;
41861;SDS011;27537;57.134;-2.136;2023-08-01T04:09:21;16.25;;;3.53;;
41861;SDS011;27537;57.134;-2.136;2023-08-01T04:11:47;7.65;;;2.08;;
41861;SDS011;27537;57.134;-2.136;2023-08-01T04:14:14;9.57;;;2.50;;
41861;SDS011;27537;57.134;-2.136;2023-08-01T04:16:41;13.25;;;2.92;;
41861;SDS011;27537;57.134;-2.136;2023-08-01T04:19:08;12.77;;;2.88;;
41861;SDS011;27537;57.134;-2.136;2023-08-01T04:21:36;14.32;;;3.55;;
41861;SDS011;27537;57.134;-2.136;2023-08-01T04:24:02;15.10;;;3.22;;
41861;SDS011;27537;57.134;-2.136;2023-08-01T04:26:29;12.20;;;2.70;;
41861;SDS011;27537;57.134;-2.136;2023-08-01T04:28:56;13.32;;;2.60;;
41861;SDS011;27537;57.134;-2.136;2023-08-01T04:31:22;12.00;;;2.70;;
41861;SDS011;27537;57.134;-2.136;2023-08-01T04:33:49;9.52;;;2.47;;
41861;SDS011;27537;57.134;-2.136;2023-08-01T04:36:16;14.25;;;2.88;;
41861;SDS011;27537;57.134;-2.136;2023-08-01T04:38:42;11.93;;;3.03;;
41861;SDS011;27537;57.134;-2.136;2023-08-01T04:41:09;11.98;;;3.03;;
41861;SDS011;27537;57.134;-2.136;2023-08-01T04:43:36;10.02;;;2.65;;
41861;SDS011;27537;57.134;-2.136;2023-08-01T04:46:02;11.85;;;2.53;;
41861;SDS011;27537;57.134;-2.136;2023-08-01T04:48:29;15.48;;;3.25;;
41861;SDS011;27537;57.134;-2.136;2023-08-01T04:50:55;14.02;;;3.00;;
41861;SDS011;27537;57.134;-2.136;2023-08-01T04:53:22;11.48;;;2.70;;
41861;SDS011;27537;57.134;-2.136;2023-08-01T04:55:49;12.70;;;2.45;;
41861;SDS011;27537;57.134;-2.136;2023-08-01T04:58:16;9.73;;;2.20;;
41861;SDS011;27537;57.134;-2.136;2023-08-01T05:00:43;11.73;;;2.95;;
41861;SDS011;27537;57.134;-2.136;2023-08-01T05:03:10;11.15;;;2.55;;
41861;SDS011;27537;57.134;-2.136;2023-08-01T05:05:37;17.08;;;3.58;;
41861;SDS011;27537;57.134;-2.136;2023-08-01T05:08:03;15.30;;;3.08;;
41861;SDS011;27537;57.134;-2.136;2023-08-01T05:10:30;13.57;;;2.88;;
41861;SDS011;27537;57.134;-2.136;2023-08-01T05:12:57;14.75;;;3.50;;
41861;SDS011;27537;57.134;-2.136;2023-08-01T05:15:23;15.10;;;3.70;;
41861;SDS011;27537;57.134;-2.136;2023-08-01T05:17:52;13.93;;;3.30;;
41861;SDS011;27537;57.134;-2.136;2023-08-01T05:20:18;9.48;;;2.17;;
41861;SDS011;27537;57.134;-2.136;2023-08-01T05:22:45;12.77;;;3.25;;
41861;SDS011;27537;57.134;-2.136;2023-08-01T05:25:12;12.73;;;2.70;;
41861;SDS011;27537;57.134;-2.136;2023-08-01T05:27:38;10.77;;;2.83;;
41861;SDS011;27537;57.134;-2.136;2023-08-01T05:30:05;7.85;;;2.30;;
41861;SDS011;27537;57.134;-2.136;2023-08-01T05:32:32;12.45;;;2.55;;
41861;SDS011;27537;57.134;-2.136;2023-08-01T05:34:59;11.18;;;2.80;;
41861;SDS011;27537;57.134;-2.136;2023-08-01T05:37:26;9.00;;;2.53;;
41861;SDS011;27537;57.134;-2.136;2023-08-01T05:39:52;11.65;;;2.88;;
41861;SDS011;27537;57.134;-2.136;2023-08-01T05:42:19;10.55;;;2.45;;
41861;SDS011;27537;57.134;-2.136;2023-08-01T05:44:45;13.85;;;3.15;;
41861;SDS011;27537;57.134;-2.136;2023-08-01T05:47:12;16.83;;;3.05;;
41861;SDS011;27537;57.134;-2.136;2023-08-01T05:49:39;9.05;;;2.33;;
41861;SDS011;27537;57.134;-2.136;2023-08-01T05:52:07;12.23;;;2.30;;
41861;SDS011;27537;57.134;-2.136;2023-08-01T05:54:34;10.88;;;2.67;;
41861;SDS011;27537;57.134;-2.136;2023-08-01T05:57:00;10.70;;;2.42;;
41861;SDS011;27537;57.134;-2.136;2023-08-01T05:59:27;14.60;;;3.65;;
41861;SDS011;27537;57.134;-2.136;2023-08-01T06:01:54;10.60;;;2.17;;
41861;SDS011;27537;57.134;-2.136;2023-08-01T06:04:20;11.20;;;2.25;;
41861;SDS011;27537;57.134;-2.136;2023-08-01T06:06:47;9.18;;;2.38;;
41861;SDS011;27537;57.134;-2.136;2023-08-01T06:09:14;12.65;;;2.72;;
41861;SDS011;27537;57.134;-2.136;2023-08-01T06:11:41;13.50;;;3.13;;
41861;SDS011;27537;57.134;-2.136;2023-08-01T06:14:08;8.88;;;2.33;;
41861;SDS011;27537;57.134;-2.136;2023-08-01T06:16:36;10.90;;;3.35;;
41861;SDS011;27537;57.134;-2.136;2023-08-01T06:19:02;11.20;;;2.17;;
41861;SDS011;27537;57.134;-2.136;2023-08-01T06:21:29;13.18;;;2.58;;
41861;SDS011;27537;57.134;-2.136;2023-08-01T06:23:56;15.55;;;3.00;;
41861;SDS011;27537;57.134;-2.136;2023-08-01T06:26:22;11.95;;;3.00;;
41861;SDS011;27537;57.134;-2.136;2023-08-01T06:28:49;14.57;;;2.83;;
41861;SDS011;27537;57.134;-2.136;2023-08-01T06:31:15;11.40;;;2.50;;
41861;SDS011;27537;57.134;-2.136;2023-08-01T06:33:42;9.93;;;2.75;;
41861;SDS011;27537;57.134;-2.136;2023-08-01T06:36:09;14.75;;;2.85;;
41861;SDS011;27537;57.134;-2.136;2023-08-01T06:38:36;9.88;;;2.40;;
41861;SDS011;27537;57.134;-2.136;2023-08-01T06:41:02;10.00;;;2.55;;
41861;SDS011;27537;57.134;-2.136;2023-08-01T06:43:29;12.70;;;3.25;;
41861;SDS011;27537;57.134;-2.136;2023-08-01T06:45:56;14.00;;;2.35;;
41861;SDS011;27537;57.134;-2.136;2023-08-01T06:48:22;11.25;;;2.65;;
41861;SDS011;27537;57.134;-2.136;2023-08-01T06:50:49;10.98;;;2.42;;
41861;SDS011;27537;57.134;-2.136;2023-08-01T06:53:16;10.23;;;2.22;;
41861;SDS011;27537;57.134;-2.136;2023-08-01T06:55:42;10.65;;;2.88;;
41861;SDS011;27537;57.134;-2.136;2023-08-01T06:58:09;14.32;;;2.80;;
41861;SDS011;27537;57.134;-2.136;2023-08-01T07:00:36;10.32;;;2.05;;
41861;SDS011;27537;57.134;-2.136;2023-08-01T07:03:02;11.38;;;2.50;;
41861;SDS011;27537;57.134;-2.136;2023-08-01T07:05:29;7.95;;;1.88;;
41861;SDS011;27537;57.134;-2.136;2023-08-01T07:07:56;15.63;;;2.17;;
41861;SDS011;27537;57.134;-2.136;2023-08-01T07:10:24;9.77;;;2.80;;
41861;SDS011;27537;57.134;-2.136;2023-08-01T07:12:51;9.90;;;2.40;;
41861;SDS011;27537;57.134;-2.136;2023-08-01T07:15:17;11.07;;;2.30;;
41861;SDS011;27537;57.134;-2.136;2023-08-01T07:17:44;9.80;;;3.10;;
41861;SDS011;27537;57.134;-2.136;2023-08-01T07:20:11;8.82;;;2.42;;
41861;SDS011;27537;57.134;-2.136;2023-08-01T07:22:37;11.68;;;2.63;;
41861;SDS011;27537;57.134;-2.136;2023-08-01T07:25:04;11.20;;;2.53;;
41861;SDS011;27537;57.134;-2.136;2023-08-01T07:27:31;15.70;;;2.60;;
41861;SDS011;27537;57.134;-2.136;2023-08-01T07:29:58;11.35;;;2.53;;
41861;SDS011;27537;57.134;-2.136;2023-08-01T07:32:24;8.73;;;1.95;;
41861;SDS011;27537;57.134;-2.136;2023-08-01T07:34:51;16.67;;;2.28;;
41861;SDS011;27537;57.134;-2.136;2023-08-01T07:37:18;14.82;;;2.70;;
41861;SDS011;27537;57.134;-2.136;2023-08-01T07:39:44;9.27;;;2.30;;
41861;SDS011;27537;57.134;-2.136;2023-08-01T07:42:11;10.65;;;2.20;;
41861;SDS011;27537;57.134;-2.136;2023-08-01T07:44:38;9.55;;;2.50;;
41861;SDS011;27537;57.134;-2.136;2023-08-01T07:47:04;10.63;;;2.50;;
41861;SDS011;27537;57.134;-2.136;2023-08-01T07:49:31;10.93;;;2.50;;
41861;SDS011;27537;57.134;-2.136;2023-08-01T07:51:58;11.57;;;2.10;;
41861;SDS011;27537;57.134;-2.136;2023-08-01T07:54:24;9.88;;;1.70;;
41861;SDS011;27537;57.134;-2.136;2023-08-01T07:56:51;14.57;;;2.33;;
41861;SDS011;27537;57.134;-2.136;2023-08-01T07:59:18;8.50;;;2.67;;
41861;SDS011;27537;57.134;-2.136;2023-08-01T08:01:44;7.95;;;1.60;;
41861;SDS011;27537;57.134;-2.136;2023-08-01T08:04:11;10.82;;;1.98;;
41861;SDS011;27537;57.134;-2.136;2023-08-01T08:06:38;7.10;;;1.73;;
41861;SDS011;27537;57.134;-2.136;2023-08-01T08:09:05;8.60;;;1.80;;
41861;SDS011;27537;57.134;-2.136;2023-08-01T08:11:32;9.05;;;1.73;;
41861;SDS011;27537;57.134;-2.136;2023-08-01T08:13:59;8.73;;;1.83;;
41861;SDS011;27537;57.134;-2.136;2023-08-01T08:16:26;14.07;;;2.33;;
41861;SDS011;27537;57.134;-2.136;2023-08-01T08:18:53;7.10;;;1.60;;
41861;SDS011;27537;57.134;-2.136;2023-08-01T08:21:20;9.95;;;1.98;;
41861;SDS011;27537;57.134;-2.136;2023-08-01T08:23:46;5.25;;;1.63;;
41861;SDS011;27537;57.134;-2.136;2023-08-01T08:26:13;8.65;;;2.15;;
41861;SDS011;27537;57.134;-2.136;2023-08-01T08:28:40;6.90;;;1.80;;
41861;SDS011;27537;57.134;-2.136;2023-08-01T08:31:08;8.75;;;1.80;;
41861;SDS011;27537;57.134;-2.136;2023-08-01T08:33:35;6.47;;;1.73;;
41861;SDS011;27537;57.134;-2.136;2023-08-01T08:36:02;6.47;;;1.60;;
41861;SDS011;27537;57.134;-2.136;2023-08-01T08:38:29;8.93;;;1.92;;
41861;SDS011;27537;57.134;-2.136;2023-08-01T08:41:02;5.07;;;1.20;;
41861;SDS011;27537;57.134;-2.136;2023-08-01T08:43:36;8.77;;;1.92;;
41861;SDS011;27537;57.134;-2.136;2023-08-01T08:46:04;9.75;;;1.73;;
41861;SDS011;27537;57.134;-2.136;2023-08-01T08:48:32;5.63;;;1.55;;
41861;SDS011;27537;57.134;-2.136;2023-08-01T08:51:00;8.43;;;1.70;;
41861;SDS011;27537;57.134;-2.136;2023-08-01T08:53:28;7.90;;;1.80;;
41861;SDS011;27537;57.134;-2.136;2023-08-01T08:55:57;9.13;;;1.60;;
41861;SDS011;27537;57.134;-2.136;2023-08-01T08:58:25;7.22;;;1.60;;
41861;SDS011;27537;57.134;-2.136;2023-08-01T09:00:59;7.93;;;1.75;;
41861;SDS011;27537;57.134;-2.136;2023-08-01T09:03:27;8.80;;;1.50;;
41861;SDS011;27537;57.134;-2.136;2023-08-01T09:05:59;7.13;;;1.67;;
41861;SDS011;27537;57.134;-2.136;2023-08-01T09:08:31;7.63;;;1.63;;
41861;SDS011;27537;57.134;-2.136;2023-08-01T09:11:03;9.13;;;1.40;;
41861;SDS011;27537;57.134;-2.136;2023-08-01T09:13:31;6.07;;;1.60;;
41861;SDS011;27537;57.134;-2.136;2023-08-01T09:16:00;8.20;;;1.83;;
41861;SDS011;27537;57.134;-2.136;2023-08-01T09:18:29;11.18;;;2.38;;
41861;SDS011;27537;57.134;-2.136;2023-08-01T09:20:55;6.65;;;2.40;;
41861;SDS011;27537;57.134;-2.136;2023-08-01T09:23:28;9.05;;;2.40;;
41861;SDS011;27537;57.134;-2.136;2023-08-01T09:25:56;10.02;;;2.58;;
41861;SDS011;27537;57.134;-2.136;2023-08-01T09:28:25;6.32;;;1.92;;
41861;SDS011;27537;57.134;-2.136;2023-08-01T09:30:54;9.93;;;2.70;;
41861;SDS011;27537;57.134;-2.136;2023-08-01T09:33:22;8.90;;;2.35;;
41861;SDS011;27537;57.134;-2.136;2023-08-01T09:35:49;8.38;;;2.35;;
41861;SDS011;27537;57.134;-2.136;2023-08-01T09:38:19;8.20;;;2.05;;
41861;SDS011;27537;57.134;-2.136;2023-08-01T09:40:46;6.82;;;1.90;;
41861;SDS011;27537;57.134;-2.136;2023-08-01T09:43:13;7.10;;;2.20;;
41861;SDS011;27537;57.134;-2.136;2023-08-01T09:45:53;8.98;;;1.70;;
41861;SDS011;27537;57.134;-2.136;2023-08-01T09:48:24;5.90;;;1.52;;
41861;SDS011;27537;57.134;-2.136;2023-08-01T09:51:03;5.28;;;1.73;;
41861;SDS011;27537;57.134;-2.136;2023-08-01T09:53:33;8.55;;;2.10;;
41861;SDS011;27537;57.134;-2.136;2023-08-01T09:56:00;6.57;;;1.40;;
41861;SDS011;27537;57.134;-2.136;2023-08-01T09:58:31;6.22;;;1.50;;
41861;SDS011;27537;57.134;-2.136;2023-08-01T10:01:03;6.95;;;1.63;;
41861;SDS011;27537;57.134;-2.136;2023-08-01T10:03:30;5.95;;;1.30;;
41861;SDS011;27537;57.134;-2.136;2023-08-01T10:05:57;4.63;;;1.30;;
41861;SDS011;27537;57.134;-2.136;2023-08-01T10:08:25;6.65;;;1.67;;
41861;SDS011;27537;57.134;-2.136;2023-08-01T10:11:17;5.75;;;1.45;;
41861;SDS011;27537;57.134;-2.136;2023-08-01T10:13:45;5.65;;;1.52;;
41861;SDS011;27537;57.134;-2.136;2023-08-01T10:16:13;8.60;;;1.60;;
41861;SDS011;27537;57.134;-2.136;2023-08-01T10:18:43;7.85;;;1.55;;
41861;SDS011;27537;57.134;-2.136;2023-08-01T10:21:14;6.13;;;1.75;;
41861;SDS011;27537;57.134;-2.136;2023-08-01T10:23:45;7.30;;;1.88;;
41861;SDS011;27537;57.134;-2.136;2023-08-01T10:26:13;8.07;;;1.58;;
41861;SDS011;27537;57.134;-2.136;2023-08-01T10:28:40;7.13;;;1.67;;
41861;SDS011;27537;57.134;-2.136;2023-08-01T10:31:17;7.53;;;2.10;;
41861;SDS011;27537;57.134;-2.136;2023-08-01T10:33:45;8.98;;;2.92;;
41861;SDS011;27537;57.134;-2.136;2023-08-01T10:36:16;7.25;;;2.50;;
41861;SDS011;27537;57.134;-2.136;2023-08-01T10:38:59;8.45;;;2.30;;
41861;SDS011;27537;57.134;-2.136;2023-08-01T10:44:04;5.13;;;1.70;;
41861;SDS011;27537;57.134;-2.136;2023-08-01T10:46:54;5.50;;;1.33;;
41861;SDS011;27537;57.134;-2.136;2023-08-01T10:52:19;3.65;;;1.17;;
41861;SDS011;27537;57.134;-2.136;2023-08-01T10:57:27;8.45;;;1.70;;
41861;SDS011;27537;57.134;-2.136;2023-08-01T11:00:04;6.65;;;1.70;;
41861;SDS011;27537;57.134;-2.136;2023-08-01T11:02:41;4.78;;;1.30;;
41861;SDS011;27537;57.134;-2.136;2023-08-01T11:05:12;7.00;;;2.00;;
41861;SDS011;27537;57.134;-2.136;2023-08-01T11:07:39;5.55;;;1.30;;
41861;SDS011;27537;57.134;-2.136;2023-08-01T11:10:06;6.88;;;1.60;;
41861;SDS011;27537;57.134;-2.136;2023-08-01T11:12:38;7.15;;;1.58;;
41861;SDS011;27537;57.134;-2.136;2023-08-01T11:15:10;7.53;;;1.77;;
41861;SDS011;27537;57.134;-2.136;2023-08-01T11:17:42;4.05;;;1.00;;
41861;SDS011;27537;57.134;-2.136;2023-08-01T11:20:13;6.40;;;1.40;;
41861;SDS011;27537;57.134;-2.136;2023-08-01T11:22:50;6.40;;;1.50;;
41861;SDS011;27537;57.134;-2.136;2023-08-01T11:25:30;9.18;;;1.40;;
41861;SDS011;27537;57.134;-2.136;2023-08-01T11:28:06;8.05;;;1.50;;
41861;SDS011;27537;57.134;-2.136;2023-08-01T11:30:35;7.83;;;1.50;;
41861;SDS011;27537;57.134;-2.136;2023-08-01T11:33:02;5.68;;;1.30;;
41861;SDS011;27537;57.134;-2.136;2023-08-01T11:35:39;6.15;;;1.40;;
41861;SDS011;27537;57.134;-2.136;2023-08-01T11:38:07;6.85;;;1.80;;
41861;SDS011;27537;57.134;-2.136;2023-08-01T11:40:34;5.07;;;1.50;;
41861;SDS011;27537;57.134;-2.136;2023-08-01T11:43:01;3.95;;;1.17;;
41861;SDS011;27537;57.134;-2.136;2023-08-01T11:45:27;6.72;;;1.65;;
41861;SDS011;27537;57.134;-2.136;2023-08-01T11:47:54;5.65;;;1.42;;
41861;SDS011;27537;57.134;-2.136;2023-08-01T11:50:22;5.35;;;1.48;;
41861;SDS011;27537;57.134;-2.136;2023-08-01T11:52:51;6.93;;;1.58;;
41861;SDS011;27537;57.134;-2.136;2023-08-01T11:55:26;5.60;;;1.63;;
41861;SDS011;27537;57.134;-2.136;2023-08-01T11:57:57;5.85;;;1.90;;
41861;SDS011;27537;57.134;-2.136;2023-08-01T12:00:25;6.35;;;2.17;;
41861;SDS011;27537;57.134;-2.136;2023-08-01T12:03:04;7.93;;;1.85;;
41861;SDS011;27537;57.134;-2.136;2023-08-01T12:05:39;4.97;;;1.88;;
41861;SDS011;27537;57.134;-2.136;2023-08-01T12:08:14;8.35;;;2.00;;
41861;SDS011;27537;57.134;-2.136;2023-08-01T12:10:42;6.80;;;2.00;;
41861;SDS011;27537;57.134;-2.136;2023-08-01T12:13:22;6.75;;;2.28;;
41861;SDS011;27537;57.134;-2.136;2023-08-01T12:15:50;5.38;;;1.50;;
41861;SDS011;27537;57.134;-2.136;2023-08-01T12:18:24;7.20;;;1.70;;
41861;SDS011;27537;57.134;-2.136;2023-08-01T12:20:55;5.55;;;1.50;;
41861;SDS011;27537;57.134;-2.136;2023-08-01T12:23:22;5.57;;;1.50;;
41861;SDS011;27537;57.134;-2.136;2023-08-01T12:25:48;8.93;;;1.92;;
41861;SDS011;27537;57.134;-2.136;2023-08-01T12:28:16;4.85;;;1.40;;
41861;SDS011;27537;57.134;-2.136;2023-08-01T12:30:43;7.97;;;1.52;;
41861;SDS011;27537;57.134;-2.136;2023-08-01T12:33:10;4.75;;;1.40;;
41861;SDS011;27537;57.134;-2.136;2023-08-01T12:35:40;4.95;;;1.50;;
41861;SDS011;27537;57.134;-2.136;2023-08-01T12:38:08;3.97;;;1.40;;
41861;SDS011;27537;57.134;-2.136;2023-08-01T12:40:35;7.22;;;1.42;;
41861;SDS011;27537;57.134;-2.136;2023-08-01T12:43:02;6.47;;;1.35;;
41861;SDS011;27537;57.134;-2.136;2023-08-01T12:45:29;5.97;;;1.25;;
41861;SDS011;27537;57.134;-2.136;2023-08-01T12:47:56;5.68;;;1.33;;
41861;SDS011;27537;57.134;-2.136;2023-08-01T12:50:23;3.70;;;1.08;;
41861;SDS011;27537;57.134;-2.136;2023-08-01T12:52:49;4.00;;;1.20;;
41861;SDS011;27537;57.134;-2.136;2023-08-01T12:55:16;8.52;;;1.27;;
41861;SDS011;27537;57.134;-2.136;2023-08-01T12:57:43;6.93;;;1.42;;
41861;SDS011;27537;57.134;-2.136;2023-08-01T13:00:10;4.07;;;1.17;;
41861;SDS011;27537;57.134;-2.136;2023-08-01T13:02:37;4.30;;;1.17;;
41861;SDS011;27537;57.134;-2.136;2023-08-01T13:05:04;5.57;;;1.20;;
41861;SDS011;27537;57.134;-2.136;2023-08-01T13:07:44;5.15;;;1.55;;
41861;SDS011;27537;57.134;-2.136;2023-08-01T13:10:11;8.80;;;1.58;;
41861;SDS011;27537;57.134;-2.136;2023-08-01T13:12:38;5.45;;;1.40;;
41861;SDS011;27537;57.134;-2.136;2023-08-01T13:15:04;6.32;;;1.35;;
41861;SDS011;27537;57.134;-2.136;2023-08-01T13:17:42;5.35;;;1.45;;
41861;SDS011;27537;57.134;-2.136;2023-08-01T13:20:10;3.80;;;1.20;;
41861;SDS011;27537;57.134;-2.136;2023-08-01T13:22:37;2.10;;;0.95;;
41861;SDS011;27537;57.134;-2.136;2023-08-01T13:25:03;5.43;;;1.13;;
41861;SDS011;27537;57.134;-2.136;2023-08-01T13:27:34;5.57;;;1.42;;
41861;SDS011;27537;57.134;-2.136;2023-08-01T13:30:05;5.90;;;1.33;;
41861;SDS011;27537;57.134;-2.136;2023-08-01T13:32:34;6.75;;;1.40;;
41861;SDS011;27537;57.134;-2.136;2023-08-01T13:35:01;6.80;;;1.65;;
41861;SDS011;27537;57.134;-2.136;2023-08-01T13:37:28;5.60;;;1.38;;
41861;SDS011;27537;57.134;-2.136;2023-08-01T13:39:56;5.13;;;1.48;;
41861;SDS011;27537;57.134;-2.136;2023-08-01T13:42:27;3.83;;;1.10;;
41861;SDS011;27537;57.134;-2.136;2023-08-01T13:44:54;4.50;;;1.42;;
41861;SDS011;27537;57.134;-2.136;2023-08-01T13:47:21;7.10;;;1.60;;
41861;SDS011;27537;57.134;-2.136;2023-08-01T13:49:48;3.60;;;1.10;;
41861;SDS011;27537;57.134;-2.136;2023-08-01T13:52:15;3.03;;;1.20;;
41861;SDS011;27537;57.134;-2.136;2023-08-01T13:54:41;4.90;;;1.20;;
41861;SDS011;27537;57.134;-2.136;2023-08-01T13:57:08;3.88;;;1.27;;
41861;SDS011;27537;57.134;-2.136;2023-08-01T13:59:36;4.68;;;1.48;;
41861;SDS011;27537;57.134;-2.136;2023-08-01T14:02:03;3.88;;;1.10;;
41861;SDS011;27537;57.134;-2.136;2023-08-01T14:04:32;3.95;;;1.20;;
41861;SDS011;27537;57.134;-2.136;2023-08-01T14:06:58;8.23;;;1.58;;
41861;SDS011;27537;57.134;-2.136;2023-08-01T14:09:25;6.18;;;1.40;;
41861;SDS011;27537;57.134;-2.136;2023-08-01T14:11:52;6.13;;;1.75;;
41861;SDS011;27537;57.134;-2.136;2023-08-01T14:14:18;5.40;;;1.35;;
41861;SDS011;27537;57.134;-2.136;2023-08-01T14:16:45;7.35;;;1.52;;
41861;SDS011;27537;57.134;-2.136;2023-08-01T14:19:12;5.45;;;1.30;;
41861;SDS011;27537;57.134;-2.136;2023-08-01T14:21:38;4.50;;;1.20;;
41861;SDS011;27537;57.134;-2.136;2023-08-01T14:24:05;8.10;;;1.80;;
41861;SDS011;27537;57.134;-2.136;2023-08-01T14:26:32;6.00;;;1.67;;
41861;SDS011;27537;57.134;-2.136;2023-08-01T14:28:58;4.90;;;1.40;;
41861;SDS011;27537;57.134;-2.136;2023-08-01T14:31:25;7.45;;;1.50;;
41861;SDS011;27537;57.134;-2.136;2023-08-01T14:33:52;6.32;;;1.67;;
41861;SDS011;27537;57.134;-2.136;2023-08-01T14:36:18;4.88;;;1.42;;
41861;SDS011;27537;57.134;-2.136;2023-08-01T14:38:45;8.45;;;2.05;;
41861;SDS011;27537;57.134;-2.136;2023-08-01T14:41:16;6.03;;;1.67;;